sensor_id;sensor_type;location;lat;lon;timestamp;P1;durP1;ratioP1;P2;durP2;ratioP2
39896;SDS011;25567;48.276;14.242;2022-11-23T00:00:31;11.73;;;6.10;;
39896;SDS011;25567;48.276;14.242;2022-11-23T00:02:58;10.35;;;5.90;;
39896;SDS011;25567;48.276;14.242;2022-11-23T00:05:26;10.13;;;5.72;;
39896;SDS011;25567;48.276;14.242;2022-11-23T00:07:54;11.85;;;6.20;;
39896;SDS011;25567;48.276;14.242;2022-11-23T00:10:21;11.85;;;6.35;;
39896;SDS011;25567;48.276;14.242;2022-11-23T00:12:48;11.48;;;6.25;;
39896;SDS011;25567;48.276;14.242;2022-11-23T00:15:16;10.68;;;6.15;;
39896;SDS011;25567;48.276;14.242;2022-11-23T00:17:45;14.60;;;6.88;;
39896;SDS011;25567;48.276;14.242;2022-11-23T00:20:13;12.05;;;6.60;;
39896;SDS011;25567;48.276;14.242;2022-11-23T00:22:40;11.93;;;6.40;;
39896;SDS011;25567;48.276;14.242;2022-11-23T00:25:07;12.35;;;6.88;;
39896;SDS011;25567;48.276;14.242;2022-11-23T00:27:34;13.63;;;7.45;;
39896;SDS011;25567;48.276;14.242;2022-11-23T00:30:00;13.25;;;6.28;;
39896;SDS011;25567;48.276;14.242;2022-11-23T00:32:28;12.05;;;6.60;;
39896;SDS011;25567;48.276;14.242;2022-11-23T00:34:55;11.90;;;6.45;;
39896;SDS011;25567;48.276;14.242;2022-11-23T00:37:21;12.35;;;7.22;;
39896;SDS011;25567;48.276;14.242;2022-11-23T00:39:48;13.63;;;6.50;;
39896;SDS011;25567;48.276;14.242;2022-11-23T00:42:14;12.93;;;6.75;;
39896;SDS011;25567;48.276;14.242;2022-11-23T00:44:44;11.55;;;6.75;;
39896;SDS011;25567;48.276;14.242;2022-11-23T00:47:11;11.52;;;6.40;;
39896;SDS011;25567;48.276;14.242;2022-11-23T00:49:38;10.65;;;6.40;;
39896;SDS011;25567;48.276;14.242;2022-11-23T00:52:04;12.27;;;7.15;;
39896;SDS011;25567;48.276;14.242;2022-11-23T00:54:31;12.57;;;7.15;;
39896;SDS011;25567;48.276;14.242;2022-11-23T00:56:57;11.85;;;6.90;;
39896;SDS011;25567;48.276;14.242;2022-11-23T00:59:24;14.68;;;7.90;;
39896;SDS011;25567;48.276;14.242;2022-11-23T01:01:51;13.43;;;7.30;;
39896;SDS011;25567;48.276;14.242;2022-11-23T01:04:17;13.30;;;7.35;;
39896;SDS011;25567;48.276;14.242;2022-11-23T01:06:44;12.10;;;6.40;;
39896;SDS011;25567;48.276;14.242;2022-11-23T01:09:12;12.50;;;7.25;;
39896;SDS011;25567;48.276;14.242;2022-11-23T01:11:42;13.50;;;7.00;;
39896;SDS011;25567;48.276;14.242;2022-11-23T01:14:10;14.65;;;7.43;;
39896;SDS011;25567;48.276;14.242;2022-11-23T01:16:38;13.10;;;7.07;;
39896;SDS011;25567;48.276;14.242;2022-11-23T01:19:07;11.80;;;6.20;;
39896;SDS011;25567;48.276;14.242;2022-11-23T01:21:37;11.35;;;6.65;;
39896;SDS011;25567;48.276;14.242;2022-11-23T01:24:05;10.45;;;6.85;;
39896;SDS011;25567;48.276;14.242;2022-11-23T01:26:33;12.70;;;6.38;;
39896;SDS011;25567;48.276;14.242;2022-11-23T01:29:00;12.57;;;6.65;;
39896;SDS011;25567;48.276;14.242;2022-11-23T01:31:27;17.38;;;7.20;;
39896;SDS011;25567;48.276;14.242;2022-11-23T01:33:54;13.88;;;7.50;;
39896;SDS011;25567;48.276;14.242;2022-11-23T01:36:24;11.07;;;6.55;;
39896;SDS011;25567;48.276;14.242;2022-11-23T01:38:52;12.88;;;7.05;;
39896;SDS011;25567;48.276;14.242;2022-11-23T01:41:21;14.57;;;7.82;;
39896;SDS011;25567;48.276;14.242;2022-11-23T01:43:49;12.35;;;6.90;;
39896;SDS011;25567;48.276;14.242;2022-11-23T01:46:16;11.45;;;6.85;;
39896;SDS011;25567;48.276;14.242;2022-11-23T01:51:21;13.15;;;7.10;;
39896;SDS011;25567;48.276;14.242;2022-11-23T01:53:52;14.20;;;7.68;;
39896;SDS011;25567;48.276;14.242;2022-11-23T01:56:23;11.38;;;6.45;;
39896;SDS011;25567;48.276;14.242;2022-11-23T01:58:53;12.98;;;7.28;;
39896;SDS011;25567;48.276;14.242;2022-11-23T02:01:24;12.18;;;6.68;;
39896;SDS011;25567;48.276;14.242;2022-11-23T02:03:50;13.35;;;7.55;;
39896;SDS011;25567;48.276;14.242;2022-11-23T02:06:20;13.18;;;6.70;;
39896;SDS011;25567;48.276;14.242;2022-11-23T02:08:51;14.15;;;6.88;;
39896;SDS011;25567;48.276;14.242;2022-11-23T02:11:18;14.00;;;7.82;;
39896;SDS011;25567;48.276;14.242;2022-11-23T02:13:45;11.02;;;6.65;;
39896;SDS011;25567;48.276;14.242;2022-11-23T02:16:14;13.35;;;6.82;;
39896;SDS011;25567;48.276;14.242;2022-11-23T02:18:44;16.40;;;7.70;;
39896;SDS011;25567;48.276;14.242;2022-11-23T02:21:13;11.55;;;6.82;;
39896;SDS011;25567;48.276;14.242;2022-11-23T02:26:17;12.70;;;6.70;;
39896;SDS011;25567;48.276;14.242;2022-11-23T02:28:49;13.75;;;7.70;;
39896;SDS011;25567;48.276;14.242;2022-11-23T02:31:22;14.05;;;7.07;;
39896;SDS011;25567;48.276;14.242;2022-11-23T02:33:49;11.07;;;7.10;;
39896;SDS011;25567;48.276;14.242;2022-11-23T02:38:59;13.10;;;7.00;;
39896;SDS011;25567;48.276;14.242;2022-11-23T02:41:35;12.80;;;7.47;;
39896;SDS011;25567;48.276;14.242;2022-11-23T02:44:04;13.65;;;6.70;;
39896;SDS011;25567;48.276;14.242;2022-11-23T02:46:40;14.00;;;6.72;;
39896;SDS011;25567;48.276;14.242;2022-11-23T02:49:06;14.57;;;8.00;;
39896;SDS011;25567;48.276;14.242;2022-11-23T02:51:33;14.60;;;6.88;;
39896;SDS011;25567;48.276;14.242;2022-11-23T02:54:01;15.25;;;7.65;;
39896;SDS011;25567;48.276;14.242;2022-11-23T02:56:27;13.65;;;7.38;;
39896;SDS011;25567;48.276;14.242;2022-11-23T02:58:54;13.43;;;7.28;;
39896;SDS011;25567;48.276;14.242;2022-11-23T03:01:20;12.50;;;7.00;;
39896;SDS011;25567;48.276;14.242;2022-11-23T03:03:47;12.27;;;6.82;;
39896;SDS011;25567;48.276;14.242;2022-11-23T03:06:14;11.65;;;6.28;;
39896;SDS011;25567;48.276;14.242;2022-11-23T03:08:40;12.90;;;6.68;;
39896;SDS011;25567;48.276;14.242;2022-11-23T03:11:07;13.35;;;6.85;;
39896;SDS011;25567;48.276;14.242;2022-11-23T03:13:34;11.73;;;6.78;;
39896;SDS011;25567;48.276;14.242;2022-11-23T03:16:00;13.05;;;7.47;;
39896;SDS011;25567;48.276;14.242;2022-11-23T03:18:27;15.95;;;7.90;;
39896;SDS011;25567;48.276;14.242;2022-11-23T03:20:54;13.75;;;6.78;;
39896;SDS011;25567;48.276;14.242;2022-11-23T03:23:20;15.38;;;7.97;;
39896;SDS011;25567;48.276;14.242;2022-11-23T03:25:53;11.98;;;6.72;;
39896;SDS011;25567;48.276;14.242;2022-11-23T03:28:21;12.93;;;7.53;;
39896;SDS011;25567;48.276;14.242;2022-11-23T03:30:48;14.75;;;7.75;;
39896;SDS011;25567;48.276;14.242;2022-11-23T03:33:15;14.05;;;7.85;;
39896;SDS011;25567;48.276;14.242;2022-11-23T03:35:42;15.10;;;7.85;;
39896;SDS011;25567;48.276;14.242;2022-11-23T03:38:09;17.48;;;7.70;;
39896;SDS011;25567;48.276;14.242;2022-11-23T03:40:36;14.52;;;7.30;;
39896;SDS011;25567;48.276;14.242;2022-11-23T03:43:03;14.88;;;8.13;;
39896;SDS011;25567;48.276;14.242;2022-11-23T03:45:29;14.02;;;7.40;;
39896;SDS011;25567;48.276;14.242;2022-11-23T03:47:56;11.27;;;6.85;;
39896;SDS011;25567;48.276;14.242;2022-11-23T03:50:23;10.90;;;6.40;;
39896;SDS011;25567;48.276;14.242;2022-11-23T03:52:50;10.38;;;6.65;;
39896;SDS011;25567;48.276;14.242;2022-11-23T03:55:17;10.90;;;6.03;;
39896;SDS011;25567;48.276;14.242;2022-11-23T03:57:43;15.52;;;6.80;;
39896;SDS011;25567;48.276;14.242;2022-11-23T04:00:13;10.98;;;6.60;;
39896;SDS011;25567;48.276;14.242;2022-11-23T04:02:41;10.85;;;6.50;;
39896;SDS011;25567;48.276;14.242;2022-11-23T04:05:08;11.20;;;6.53;;
39896;SDS011;25567;48.276;14.242;2022-11-23T04:07:35;13.00;;;6.93;;
39896;SDS011;25567;48.276;14.242;2022-11-23T04:10:02;14.15;;;7.13;;
39896;SDS011;25567;48.276;14.242;2022-11-23T04:12:29;12.52;;;7.10;;
39896;SDS011;25567;48.276;14.242;2022-11-23T04:14:56;12.48;;;6.47;;
39896;SDS011;25567;48.276;14.242;2022-11-23T04:17:22;10.52;;;6.65;;
39896;SDS011;25567;48.276;14.242;2022-11-23T04:19:49;16.73;;;7.45;;
39896;SDS011;25567;48.276;14.242;2022-11-23T04:22:17;12.85;;;6.85;;
39896;SDS011;25567;48.276;14.242;2022-11-23T04:24:43;13.00;;;6.43;;
39896;SDS011;25567;48.276;14.242;2022-11-23T04:27:10;12.93;;;7.47;;
39896;SDS011;25567;48.276;14.242;2022-11-23T04:29:37;13.25;;;6.72;;
39896;SDS011;25567;48.276;14.242;2022-11-23T04:32:03;13.45;;;7.07;;
39896;SDS011;25567;48.276;14.242;2022-11-23T04:34:30;12.88;;;7.35;;
39896;SDS011;25567;48.276;14.242;2022-11-23T04:36:57;15.68;;;7.40;;
39896;SDS011;25567;48.276;14.242;2022-11-23T04:39:24;16.45;;;7.78;;
39896;SDS011;25567;48.276;14.242;2022-11-23T04:41:50;13.77;;;7.55;;
39896;SDS011;25567;48.276;14.242;2022-11-23T04:44:17;12.80;;;7.82;;
39896;SDS011;25567;48.276;14.242;2022-11-23T04:46:49;11.45;;;7.03;;
39896;SDS011;25567;48.276;14.242;2022-11-23T04:49:16;14.75;;;7.85;;
39896;SDS011;25567;48.276;14.242;2022-11-23T04:51:43;15.32;;;8.20;;
39896;SDS011;25567;48.276;14.242;2022-11-23T04:54:09;12.82;;;6.97;;
39896;SDS011;25567;48.276;14.242;2022-11-23T04:56:36;11.85;;;7.25;;
39896;SDS011;25567;48.276;14.242;2022-11-23T04:59:03;12.27;;;7.28;;
39896;SDS011;25567;48.276;14.242;2022-11-23T05:01:29;12.27;;;7.22;;
39896;SDS011;25567;48.276;14.242;2022-11-23T05:03:56;15.18;;;7.03;;
39896;SDS011;25567;48.276;14.242;2022-11-23T05:06:23;14.77;;;8.00;;
39896;SDS011;25567;48.276;14.242;2022-11-23T05:08:50;18.58;;;8.52;;
39896;SDS011;25567;48.276;14.242;2022-11-23T05:11:16;16.27;;;7.72;;
39896;SDS011;25567;48.276;14.242;2022-11-23T05:13:45;13.57;;;7.43;;
39896;SDS011;25567;48.276;14.242;2022-11-23T05:16:11;11.98;;;7.03;;
39896;SDS011;25567;48.276;14.242;2022-11-23T05:18:38;14.55;;;8.32;;
39896;SDS011;25567;48.276;14.242;2022-11-23T05:21:05;14.90;;;8.07;;
39896;SDS011;25567;48.276;14.242;2022-11-23T05:23:31;13.98;;;8.20;;
39896;SDS011;25567;48.276;14.242;2022-11-23T05:25:58;16.90;;;9.05;;
39896;SDS011;25567;48.276;14.242;2022-11-23T05:28:25;20.65;;;9.30;;
39896;SDS011;25567;48.276;14.242;2022-11-23T05:31:07;15.70;;;8.05;;
39896;SDS011;25567;48.276;14.242;2022-11-23T05:33:35;16.73;;;8.25;;
39896;SDS011;25567;48.276;14.242;2022-11-23T05:36:02;15.68;;;8.10;;
39896;SDS011;25567;48.276;14.242;2022-11-23T05:38:29;16.02;;;8.07;;
39896;SDS011;25567;48.276;14.242;2022-11-23T05:40:55;14.95;;;7.78;;
39896;SDS011;25567;48.276;14.242;2022-11-23T05:43:22;13.88;;;7.70;;
39896;SDS011;25567;48.276;14.242;2022-11-23T05:45:49;14.45;;;6.97;;
39896;SDS011;25567;48.276;14.242;2022-11-23T05:48:15;13.48;;;7.47;;
39896;SDS011;25567;48.276;14.242;2022-11-23T05:50:42;17.65;;;7.22;;
39896;SDS011;25567;48.276;14.242;2022-11-23T05:53:09;16.90;;;8.10;;
39896;SDS011;25567;48.276;14.242;2022-11-23T05:55:36;12.48;;;7.82;;
39896;SDS011;25567;48.276;14.242;2022-11-23T05:58:02;15.10;;;7.40;;
39896;SDS011;25567;48.276;14.242;2022-11-23T06:00:29;13.30;;;6.95;;
39896;SDS011;25567;48.276;14.242;2022-11-23T06:02:58;11.98;;;7.13;;
39896;SDS011;25567;48.276;14.242;2022-11-23T06:05:26;13.93;;;7.70;;
39896;SDS011;25567;48.276;14.242;2022-11-23T06:07:54;12.60;;;6.97;;
39896;SDS011;25567;48.276;14.242;2022-11-23T06:10:21;12.65;;;7.45;;
39896;SDS011;25567;48.276;14.242;2022-11-23T06:12:48;11.45;;;7.07;;
39896;SDS011;25567;48.276;14.242;2022-11-23T06:15:17;15.00;;;8.00;;
39896;SDS011;25567;48.276;14.242;2022-11-23T06:17:44;31.30;;;8.40;;
39896;SDS011;25567;48.276;14.242;2022-11-23T06:20:11;17.42;;;7.78;;
39896;SDS011;25567;48.276;14.242;2022-11-23T06:22:37;13.75;;;7.82;;
39896;SDS011;25567;48.276;14.242;2022-11-23T06:25:04;16.25;;;8.40;;
39896;SDS011;25567;48.276;14.242;2022-11-23T06:27:31;14.35;;;8.00;;
39896;SDS011;25567;48.276;14.242;2022-11-23T06:29:58;15.02;;;8.02;;
39896;SDS011;25567;48.276;14.242;2022-11-23T06:32:24;12.27;;;7.32;;
39896;SDS011;25567;48.276;14.242;2022-11-23T06:34:51;15.35;;;8.73;;
39896;SDS011;25567;48.276;14.242;2022-11-23T06:37:24;12.57;;;7.88;;
39896;SDS011;25567;48.276;14.242;2022-11-23T06:39:51;15.35;;;8.48;;
39896;SDS011;25567;48.276;14.242;2022-11-23T06:42:17;16.77;;;8.65;;
39896;SDS011;25567;48.276;14.242;2022-11-23T06:45:04;19.17;;;8.48;;
39896;SDS011;25567;48.276;14.242;2022-11-23T06:47:32;17.08;;;9.25;;
39896;SDS011;25567;48.276;14.242;2022-11-23T06:49:59;20.63;;;9.05;;
39896;SDS011;25567;48.276;14.242;2022-11-23T06:52:26;18.98;;;9.85;;
39896;SDS011;25567;48.276;14.242;2022-11-23T06:54:53;25.05;;;9.77;;
39896;SDS011;25567;48.276;14.242;2022-11-23T06:57:19;17.95;;;9.82;;
39896;SDS011;25567;48.276;14.242;2022-11-23T06:59:46;19.95;;;9.30;;
39896;SDS011;25567;48.276;14.242;2022-11-23T07:02:13;18.65;;;9.98;;
39896;SDS011;25567;48.276;14.242;2022-11-23T07:04:40;21.67;;;9.32;;
39896;SDS011;25567;48.276;14.242;2022-11-23T07:07:07;18.38;;;8.77;;
39896;SDS011;25567;48.276;14.242;2022-11-23T07:09:34;17.65;;;8.63;;
39896;SDS011;25567;48.276;14.242;2022-11-23T07:12:01;16.80;;;7.75;;
39896;SDS011;25567;48.276;14.242;2022-11-23T07:14:28;14.20;;;7.72;;
39896;SDS011;25567;48.276;14.242;2022-11-23T07:16:55;15.70;;;7.55;;
39896;SDS011;25567;48.276;14.242;2022-11-23T07:19:21;14.75;;;8.00;;
39896;SDS011;25567;48.276;14.242;2022-11-23T07:21:48;12.57;;;7.43;;
39896;SDS011;25567;48.276;14.242;2022-11-23T07:24:15;14.70;;;6.75;;
39896;SDS011;25567;48.276;14.242;2022-11-23T07:26:41;13.13;;;6.60;;
39896;SDS011;25567;48.276;14.242;2022-11-23T07:29:08;11.93;;;6.78;;
39896;SDS011;25567;48.276;14.242;2022-11-23T07:31:35;11.30;;;6.63;;
39896;SDS011;25567;48.276;14.242;2022-11-23T07:34:02;12.98;;;7.28;;
39896;SDS011;25567;48.276;14.242;2022-11-23T07:36:30;13.25;;;7.00;;
39896;SDS011;25567;48.276;14.242;2022-11-23T07:38:56;11.13;;;7.35;;
39896;SDS011;25567;48.276;14.242;2022-11-23T07:41:23;17.15;;;7.88;;
39896;SDS011;25567;48.276;14.242;2022-11-23T07:43:52;19.55;;;9.57;;
39896;SDS011;25567;48.276;14.242;2022-11-23T07:46:20;28.80;;;12.23;;
39896;SDS011;25567;48.276;14.242;2022-11-23T07:48:47;12.73;;;7.82;;
39896;SDS011;25567;48.276;14.242;2022-11-23T07:51:14;15.98;;;7.72;;
39896;SDS011;25567;48.276;14.242;2022-11-23T07:53:41;16.35;;;8.52;;
39896;SDS011;25567;48.276;14.242;2022-11-23T07:56:08;17.90;;;8.25;;
39896;SDS011;25567;48.276;14.242;2022-11-23T07:58:35;21.02;;;8.05;;
39896;SDS011;25567;48.276;14.242;2022-11-23T08:01:02;19.58;;;8.23;;
39896;SDS011;25567;48.276;14.242;2022-11-23T08:03:28;18.25;;;8.45;;
39896;SDS011;25567;48.276;14.242;2022-11-23T08:05:56;14.55;;;7.40;;
39896;SDS011;25567;48.276;14.242;2022-11-23T08:08:22;15.55;;;7.88;;
39896;SDS011;25567;48.276;14.242;2022-11-23T08:10:49;12.93;;;7.72;;
39896;SDS011;25567;48.276;14.242;2022-11-23T08:13:19;17.38;;;8.05;;
39896;SDS011;25567;48.276;14.242;2022-11-23T08:15:46;13.02;;;7.63;;
39896;SDS011;25567;48.276;14.242;2022-11-23T08:18:23;14.45;;;8.13;;
39896;SDS011;25567;48.276;14.242;2022-11-23T08:20:59;12.57;;;7.82;;
39896;SDS011;25567;48.276;14.242;2022-11-23T08:23:40;20.33;;;7.93;;
39896;SDS011;25567;48.276;14.242;2022-11-23T08:26:09;12.82;;;7.45;;
39896;SDS011;25567;48.276;14.242;2022-11-23T08:28:39;13.18;;;7.57;;
39896;SDS011;25567;48.276;14.242;2022-11-23T08:31:08;13.25;;;7.82;;
39896;SDS011;25567;48.276;14.242;2022-11-23T08:33:40;13.73;;;7.60;;
39896;SDS011;25567;48.276;14.242;2022-11-23T08:36:23;14.43;;;7.82;;
39896;SDS011;25567;48.276;14.242;2022-11-23T08:38:54;14.05;;;7.85;;
39896;SDS011;25567;48.276;14.242;2022-11-23T08:41:34;15.40;;;8.02;;
39896;SDS011;25567;48.276;14.242;2022-11-23T08:44:27;14.65;;;7.25;;
39896;SDS011;25567;48.276;14.242;2022-11-23T08:47:04;15.35;;;8.02;;
39896;SDS011;25567;48.276;14.242;2022-11-23T08:49:31;14.48;;;7.20;;
39896;SDS011;25567;48.276;14.242;2022-11-23T08:51:58;12.50;;;6.93;;
39896;SDS011;25567;48.276;14.242;2022-11-23T08:54:25;16.30;;;7.15;;
39896;SDS011;25567;48.276;14.242;2022-11-23T08:56:52;12.18;;;6.53;;
39896;SDS011;25567;48.276;14.242;2022-11-23T08:59:18;14.13;;;8.57;;
39896;SDS011;25567;48.276;14.242;2022-11-23T09:01:45;13.70;;;7.90;;
39896;SDS011;25567;48.276;14.242;2022-11-23T09:04:12;14.20;;;8.35;;
39896;SDS011;25567;48.276;14.242;2022-11-23T09:06:45;12.35;;;7.50;;
39896;SDS011;25567;48.276;14.242;2022-11-23T09:09:12;12.07;;;7.03;;
39896;SDS011;25567;48.276;14.242;2022-11-23T09:11:39;12.93;;;7.40;;
39896;SDS011;25567;48.276;14.242;2022-11-23T09:14:05;11.27;;;7.25;;
39896;SDS011;25567;48.276;14.242;2022-11-23T09:16:32;14.05;;;7.93;;
39896;SDS011;25567;48.276;14.242;2022-11-23T09:18:59;13.07;;;8.15;;
39896;SDS011;25567;48.276;14.242;2022-11-23T09:21:26;15.38;;;8.60;;
39896;SDS011;25567;48.276;14.242;2022-11-23T09:23:56;14.55;;;8.52;;
39896;SDS011;25567;48.276;14.242;2022-11-23T09:26:22;15.90;;;8.93;;
39896;SDS011;25567;48.276;14.242;2022-11-23T09:28:49;16.08;;;9.38;;
39896;SDS011;25567;48.276;14.242;2022-11-23T09:31:16;18.52;;;9.85;;
39896;SDS011;25567;48.276;14.242;2022-11-23T09:33:43;20.27;;;9.43;;
39896;SDS011;25567;48.276;14.242;2022-11-23T09:36:10;19.80;;;9.85;;
39896;SDS011;25567;48.276;14.242;2022-11-23T09:38:37;16.33;;;8.13;;
39896;SDS011;25567;48.276;14.242;2022-11-23T09:47:10;19.83;;;8.90;;
39896;SDS011;25567;48.276;14.242;2022-11-23T09:53:12;13.48;;;7.85;;
39896;SDS011;25567;48.276;14.242;2022-11-23T09:55:50;15.02;;;8.35;;
39896;SDS011;25567;48.276;14.242;2022-11-23T09:58:21;13.70;;;6.97;;
39896;SDS011;25567;48.276;14.242;2022-11-23T10:01:03;14.52;;;7.78;;
39896;SDS011;25567;48.276;14.242;2022-11-23T10:03:35;16.27;;;7.80;;
39896;SDS011;25567;48.276;14.242;2022-11-23T10:14:46;11.48;;;7.07;;
39896;SDS011;25567;48.276;14.242;2022-11-23T10:23:07;13.93;;;7.80;;
39896;SDS011;25567;48.276;14.242;2022-11-23T10:25:52;16.48;;;9.48;;
39896;SDS011;25567;48.276;14.242;2022-11-23T10:28:20;19.13;;;10.30;;
39896;SDS011;25567;48.276;14.242;2022-11-23T10:30:57;21.25;;;10.63;;
39896;SDS011;25567;48.276;14.242;2022-11-23T10:33:37;17.42;;;8.95;;
39896;SDS011;25567;48.276;14.242;2022-11-23T10:36:10;17.92;;;10.18;;
39896;SDS011;25567;48.276;14.242;2022-11-23T10:38:39;16.90;;;8.90;;
39896;SDS011;25567;48.276;14.242;2022-11-23T10:41:08;16.27;;;9.52;;
39896;SDS011;25567;48.276;14.242;2022-11-23T10:43:40;23.10;;;12.07;;
39896;SDS011;25567;48.276;14.242;2022-11-23T10:49:57;18.02;;;10.43;;
39896;SDS011;25567;48.276;14.242;2022-11-23T10:54:33;26.40;;;14.05;;
39896;SDS011;25567;48.276;14.242;2022-11-23T10:59:55;17.88;;;9.55;;
39896;SDS011;25567;48.276;14.242;2022-11-23T11:02:25;17.95;;;10.00;;
39896;SDS011;25567;48.276;14.242;2022-11-23T11:08:16;15.73;;;7.88;;
39896;SDS011;25567;48.276;14.242;2022-11-23T11:11:03;14.38;;;7.25;;
39896;SDS011;25567;48.276;14.242;2022-11-23T11:13:38;16.50;;;7.50;;
39896;SDS011;25567;48.276;14.242;2022-11-23T11:16:09;13.40;;;7.65;;
39896;SDS011;25567;48.276;14.242;2022-11-23T11:19:19;14.95;;;8.90;;
39896;SDS011;25567;48.276;14.242;2022-11-23T11:21:46;17.17;;;8.80;;
39896;SDS011;25567;48.276;14.242;2022-11-23T11:24:14;14.13;;;8.65;;
39896;SDS011;25567;48.276;14.242;2022-11-23T11:26:50;17.27;;;9.20;;
39896;SDS011;25567;48.276;14.242;2022-11-23T11:29:47;16.02;;;7.82;;
39896;SDS011;25567;48.276;14.242;2022-11-23T11:32:24;13.02;;;7.63;;
39896;SDS011;25567;48.276;14.242;2022-11-23T11:35:02;12.23;;;7.38;;
39896;SDS011;25567;48.276;14.242;2022-11-23T11:43:07;12.82;;;7.45;;
39896;SDS011;25567;48.276;14.242;2022-11-23T11:51:53;14.00;;;6.65;;
39896;SDS011;25567;48.276;14.242;2022-11-23T11:57:17;12.65;;;5.97;;
39896;SDS011;25567;48.276;14.242;2022-11-23T11:59:48;9.45;;;5.78;;
39896;SDS011;25567;48.276;14.242;2022-11-23T12:07:51;12.77;;;5.40;;
39896;SDS011;25567;48.276;14.242;2022-11-23T12:13:17;10.65;;;5.57;;
39896;SDS011;25567;48.276;14.242;2022-11-23T12:15:47;12.88;;;6.13;;
39896;SDS011;25567;48.276;14.242;2022-11-23T12:18:31;17.15;;;6.60;;
39896;SDS011;25567;48.276;14.242;2022-11-23T12:21:03;12.35;;;6.35;;
39896;SDS011;25567;48.276;14.242;2022-11-23T12:23:48;10.77;;;6.20;;
39896;SDS011;25567;48.276;14.242;2022-11-23T12:26:20;12.73;;;6.80;;
39896;SDS011;25567;48.276;14.242;2022-11-23T12:31:55;13.13;;;7.07;;
39896;SDS011;25567;48.276;14.242;2022-11-23T12:34:30;10.70;;;5.63;;
39896;SDS011;25567;48.276;14.242;2022-11-23T12:37:28;13.88;;;5.30;;
39896;SDS011;25567;48.276;14.242;2022-11-23T12:43:11;8.82;;;5.15;;
39896;SDS011;25567;48.276;14.242;2022-11-23T12:51:07;14.25;;;5.50;;
39896;SDS011;25567;48.276;14.242;2022-11-23T12:57:00;11.32;;;6.15;;
39896;SDS011;25567;48.276;14.242;2022-11-23T12:59:41;10.07;;;5.10;;
39896;SDS011;25567;48.276;14.242;2022-11-23T13:02:13;13.02;;;5.22;;
39896;SDS011;25567;48.276;14.242;2022-11-23T13:05:10;11.80;;;5.13;;
39896;SDS011;25567;48.276;14.242;2022-11-23T13:11:00;10.90;;;5.85;;
39896;SDS011;25567;48.276;14.242;2022-11-23T13:21:46;10.85;;;5.07;;
39896;SDS011;25567;48.276;14.242;2022-11-23T13:35:47;9.32;;;4.80;;
39896;SDS011;25567;48.276;14.242;2022-11-23T13:40:23;9.85;;;4.18;;
39896;SDS011;25567;48.276;14.242;2022-11-23T13:42:52;11.55;;;4.18;;
39896;SDS011;25567;48.276;14.242;2022-11-23T13:45:24;7.60;;;4.47;;
39896;SDS011;25567;48.276;14.242;2022-11-23T13:48:01;10.60;;;3.80;;
39896;SDS011;25567;48.276;14.242;2022-11-23T13:50:30;11.25;;;4.68;;
39896;SDS011;25567;48.276;14.242;2022-11-23T13:52:57;10.30;;;4.15;;
39896;SDS011;25567;48.276;14.242;2022-11-23T14:00:54;11.43;;;4.20;;
39896;SDS011;25567;48.276;14.242;2022-11-23T14:14:41;7.70;;;3.88;;
39896;SDS011;25567;48.276;14.242;2022-11-23T14:20:16;10.50;;;4.35;;
39896;SDS011;25567;48.276;14.242;2022-11-23T14:40:26;8.23;;;3.78;;
39896;SDS011;25567;48.276;14.242;2022-11-23T14:42:56;8.10;;;4.03;;
39896;SDS011;25567;48.276;14.242;2022-11-23T14:45:25;7.60;;;4.35;;
39896;SDS011;25567;48.276;14.242;2022-11-23T14:47:54;8.15;;;3.67;;
39896;SDS011;25567;48.276;14.242;2022-11-23T14:52:50;10.07;;;4.45;;
39896;SDS011;25567;48.276;14.242;2022-11-23T14:55:20;10.13;;;4.65;;
39896;SDS011;25567;48.276;14.242;2022-11-23T14:57:51;11.80;;;4.78;;
39896;SDS011;25567;48.276;14.242;2022-11-23T15:03:08;12.48;;;4.93;;
39896;SDS011;25567;48.276;14.242;2022-11-23T15:06:09;13.65;;;4.88;;
39896;SDS011;25567;48.276;14.242;2022-11-23T15:08:55;12.10;;;4.93;;
39896;SDS011;25567;48.276;14.242;2022-11-23T15:11:32;9.02;;;4.20;;
39896;SDS011;25567;48.276;14.242;2022-11-23T15:14:25;9.38;;;4.60;;
39896;SDS011;25567;48.276;14.242;2022-11-23T15:16:54;11.15;;;5.20;;
39896;SDS011;25567;48.276;14.242;2022-11-23T15:19:59;10.05;;;5.18;;
39896;SDS011;25567;48.276;14.242;2022-11-23T15:22:27;9.80;;;4.72;;
39896;SDS011;25567;48.276;14.242;2022-11-23T15:24:56;11.50;;;5.55;;
39896;SDS011;25567;48.276;14.242;2022-11-23T15:27:43;15.88;;;5.88;;
39896;SDS011;25567;48.276;14.242;2022-11-23T15:30:15;11.55;;;5.72;;
39896;SDS011;25567;48.276;14.242;2022-11-23T15:32:54;10.50;;;5.38;;
39896;SDS011;25567;48.276;14.242;2022-11-23T15:35:37;10.65;;;5.15;;
39896;SDS011;25567;48.276;14.242;2022-11-23T15:38:06;12.60;;;5.55;;
39896;SDS011;25567;48.276;14.242;2022-11-23T15:40:39;14.13;;;5.45;;
39896;SDS011;25567;48.276;14.242;2022-11-23T15:43:16;10.70;;;5.32;;
39896;SDS011;25567;48.276;14.242;2022-11-23T15:50:44;10.60;;;4.90;;
39896;SDS011;25567;48.276;14.242;2022-11-23T15:53:16;10.90;;;5.47;;
39896;SDS011;25567;48.276;14.242;2022-11-23T15:55:44;17.10;;;5.25;;
39896;SDS011;25567;48.276;14.242;2022-11-23T15:58:25;12.20;;;6.07;;
39896;SDS011;25567;48.276;14.242;2022-11-23T16:00:53;14.32;;;7.47;;
39896;SDS011;25567;48.276;14.242;2022-11-23T16:03:37;21.73;;;10.02;;
39896;SDS011;25567;48.276;14.242;2022-11-23T16:08:45;15.38;;;8.60;;
39896;SDS011;25567;48.276;14.242;2022-11-23T16:11:28;20.88;;;10.00;;
39896;SDS011;25567;48.276;14.242;2022-11-23T16:16:45;16.98;;;6.95;;
39896;SDS011;25567;48.276;14.242;2022-11-23T16:19:18;12.32;;;6.07;;
39896;SDS011;25567;48.276;14.242;2022-11-23T16:21:57;10.52;;;6.13;;
39896;SDS011;25567;48.276;14.242;2022-11-23T16:24:28;13.70;;;6.80;;
39896;SDS011;25567;48.276;14.242;2022-11-23T16:26:57;12.63;;;6.10;;
39896;SDS011;25567;48.276;14.242;2022-11-23T16:29:25;13.43;;;6.78;;
39896;SDS011;25567;48.276;14.242;2022-11-23T16:31:58;15.40;;;7.82;;
39896;SDS011;25567;48.276;14.242;2022-11-23T16:34:26;27.48;;;11.18;;
39896;SDS011;25567;48.276;14.242;2022-11-23T16:36:53;25.92;;;12.02;;
39896;SDS011;25567;48.276;14.242;2022-11-23T16:39:22;33.92;;;14.18;;
39896;SDS011;25567;48.276;14.242;2022-11-23T16:41:50;27.58;;;14.85;;
39896;SDS011;25567;48.276;14.242;2022-11-23T16:44:17;28.05;;;13.45;;
39896;SDS011;25567;48.276;14.242;2022-11-23T16:46:45;26.30;;;11.60;;
39896;SDS011;25567;48.276;14.242;2022-11-23T16:49:17;19.90;;;10.93;;
39896;SDS011;25567;48.276;14.242;2022-11-23T16:51:47;20.77;;;10.43;;
39896;SDS011;25567;48.276;14.242;2022-11-23T16:54:22;23.30;;;11.43;;
39896;SDS011;25567;48.276;14.242;2022-11-23T16:56:50;19.05;;;10.38;;
39896;SDS011;25567;48.276;14.242;2022-11-23T16:59:18;21.92;;;10.00;;
39896;SDS011;25567;48.276;14.242;2022-11-23T17:01:46;15.20;;;8.38;;
39896;SDS011;25567;48.276;14.242;2022-11-23T17:04:20;22.38;;;9.07;;
39896;SDS011;25567;48.276;14.242;2022-11-23T17:06:47;12.90;;;7.53;;
39896;SDS011;25567;48.276;14.242;2022-11-23T17:09:14;15.02;;;7.18;;
39896;SDS011;25567;48.276;14.242;2022-11-23T17:11:41;15.68;;;8.15;;
39896;SDS011;25567;48.276;14.242;2022-11-23T17:14:12;16.90;;;8.18;;
39896;SDS011;25567;48.276;14.242;2022-11-23T17:16:44;15.55;;;7.50;;